sensor_id;sensor_type;location;lat;lon;timestamp;temperature;humidity
39453;DHT22;25154;-33.684;151.102;2023-04-03T00:04:13;18.60;99.90
39453;DHT22;25154;-33.684;151.102;2023-04-03T00:09:16;18.50;99.90
39453;DHT22;25154;-33.684;151.102;2023-04-03T00:14:19;19.00;99.90
39453;DHT22;25154;-33.684;151.102;2023-04-03T00:19:22;18.90;99.90
39453;DHT22;25154;-33.684;151.102;2023-04-03T00:24:24;18.90;99.90
39453;DHT22;25154;-33.684;151.102;2023-04-03T00:29:27;19.10;99.90
39453;DHT22;25154;-33.684;151.102;2023-04-03T00:34:30;19.00;99.90
39453;DHT22;25154;-33.684;151.102;2023-04-03T00:39:33;19.20;99.90
39453;DHT22;25154;-33.684;151.102;2023-04-03T00:49:39;20.00;99.90
39453;DHT22;25154;-33.684;151.102;2023-04-03T00:54:43;19.90;99.90
39453;DHT22;25154;-33.684;151.102;2023-04-03T00:59:52;20.20;99.90
39453;DHT22;25154;-33.684;151.102;2023-04-03T01:04:57;21.00;99.90
39453;DHT22;25154;-33.684;151.102;2023-04-03T01:10:06;20.10;99.90
39453;DHT22;25154;-33.684;151.102;2023-04-03T01:15:23;21.90;99.90
39453;DHT22;25154;-33.684;151.102;2023-04-03T01:25:57;22.20;99.90
39453;DHT22;25154;-33.684;151.102;2023-04-03T01:31:22;22.50;99.90
39453;DHT22;25154;-33.684;151.102;2023-04-03T01:36:29;22.80;99.90
39453;DHT22;25154;-33.684;151.102;2023-04-03T01:41:32;22.50;99.90
39453;DHT22;25154;-33.684;151.102;2023-04-03T01:46:35;22.70;99.90
39453;DHT22;25154;-33.684;151.102;2023-04-03T01:51:39;22.30;99.90
39453;DHT22;25154;-33.684;151.102;2023-04-03T01:56:42;22.20;99.90
39453;DHT22;25154;-33.684;151.102;2023-04-03T02:01:45;21.90;99.90
39453;DHT22;25154;-33.684;151.102;2023-04-03T02:06:48;22.00;99.90
39453;DHT22;25154;-33.684;151.102;2023-04-03T02:11:51;22.30;99.90
39453;DHT22;25154;-33.684;151.102;2023-04-03T02:16:54;22.30;99.90
39453;DHT22;25154;-33.684;151.102;2023-04-03T02:21:59;22.50;99.90
39453;DHT22;25154;-33.684;151.102;2023-04-03T02:27:02;22.90;99.90
39453;DHT22;25154;-33.684;151.102;2023-04-03T02:32:05;23.60;99.90
39453;DHT22;25154;-33.684;151.102;2023-04-03T02:37:11;23.40;99.90
39453;DHT22;25154;-33.684;151.102;2023-04-03T02:42:15;23.20;99.90
39453;DHT22;25154;-33.684;151.102;2023-04-03T02:47:18;23.50;99.90
39453;DHT22;25154;-33.684;151.102;2023-04-03T02:52:21;23.10;99.90
39453;DHT22;25154;-33.684;151.102;2023-04-03T02:57:24;22.90;99.90
39453;DHT22;25154;-33.684;151.102;2023-04-03T03:02:27;24.20;99.90
39453;DHT22;25154;-33.684;151.102;2023-04-03T03:07:29;25.00;99.90
39453;DHT22;25154;-33.684;151.102;2023-04-03T03:12:32;24.80;99.90
39453;DHT22;25154;-33.684;151.102;2023-04-03T03:17:35;24.40;99.90
39453;DHT22;25154;-33.684;151.102;2023-04-03T03:22:38;24.00;99.90
39453;DHT22;25154;-33.684;151.102;2023-04-03T03:27:40;23.60;99.90
39453;DHT22;25154;-33.684;151.102;2023-04-03T03:32:43;24.00;99.90
39453;DHT22;25154;-33.684;151.102;2023-04-03T03:37:46;24.50;99.90
39453;DHT22;25154;-33.684;151.102;2023-04-03T03:42:48;24.00;99.90
39453;DHT22;25154;-33.684;151.102;2023-04-03T03:47:54;24.60;99.90
39453;DHT22;25154;-33.684;151.102;2023-04-03T03:52:56;24.60;99.90
39453;DHT22;25154;-33.684;151.102;2023-04-03T03:57:59;24.90;99.90
39453;DHT22;25154;-33.684;151.102;2023-04-03T04:03:05;25.30;99.90
39453;DHT22;25154;-33.684;151.102;2023-04-03T04:08:08;24.50;99.90
39453;DHT22;25154;-33.684;151.102;2023-04-03T04:13:10;23.80;99.90
39453;DHT22;25154;-33.684;151.102;2023-04-03T04:18:13;24.90;99.90
39453;DHT22;25154;-33.684;151.102;2023-04-03T04:23:17;26.60;99.90
39453;DHT22;25154;-33.684;151.102;2023-04-03T04:28:20;25.90;99.90
39453;DHT22;25154;-33.684;151.102;2023-04-03T04:33:23;24.80;99.90
39453;DHT22;25154;-33.684;151.102;2023-04-03T04:38:26;24.60;99.90
39453;DHT22;25154;-33.684;151.102;2023-04-03T04:43:29;25.70;99.90
39453;DHT22;25154;-33.684;151.102;2023-04-03T04:48:32;26.70;99.90
39453;DHT22;25154;-33.684;151.102;2023-04-03T04:53:35;28.00;99.90
39453;DHT22;25154;-33.684;151.102;2023-04-03T04:58:38;26.60;99.90
39453;DHT22;25154;-33.684;151.102;2023-04-03T05:03:40;25.10;99.90
39453;DHT22;25154;-33.684;151.102;2023-04-03T05:08:43;24.00;99.90
39453;DHT22;25154;-33.684;151.102;2023-04-03T05:13:46;23.20;99.90
39453;DHT22;25154;-33.684;151.102;2023-04-03T05:18:49;22.60;99.90
39453;DHT22;25154;-33.684;151.102;2023-04-03T05:23:52;22.30;99.90
39453;DHT22;25154;-33.684;151.102;2023-04-03T05:28:54;22.10;99.90
39453;DHT22;25154;-33.684;151.102;2023-04-03T05:33:58;22.50;99.90
39453;DHT22;25154;-33.684;151.102;2023-04-03T05:39:01;22.60;99.90
39453;DHT22;25154;-33.684;151.102;2023-04-03T05:44:03;22.60;99.90
39453;DHT22;25154;-33.684;151.102;2023-04-03T05:49:06;23.40;99.90
39453;DHT22;25154;-33.684;151.102;2023-04-03T05:54:25;22.90;99.90
39453;DHT22;25154;-33.684;151.102;2023-04-03T05:59:28;22.60;99.90
39453;DHT22;25154;-33.684;151.102;2023-04-03T06:04:31;22.70;99.90
39453;DHT22;25154;-33.684;151.102;2023-04-03T06:09:34;22.40;99.90
39453;DHT22;25154;-33.684;151.102;2023-04-03T06:14:37;22.50;99.90
39453;DHT22;25154;-33.684;151.102;2023-04-03T06:19:40;22.50;99.90
39453;DHT22;25154;-33.684;151.102;2023-04-03T06:24:42;22.00;99.90
39453;DHT22;25154;-33.684;151.102;2023-04-03T06:29:45;22.10;99.90
39453;DHT22;25154;-33.684;151.102;2023-04-03T06:34:48;23.10;99.90
39453;DHT22;25154;-33.684;151.102;2023-04-03T06:39:51;23.40;99.90
39453;DHT22;25154;-33.684;151.102;2023-04-03T06:44:54;23.90;99.90
39453;DHT22;25154;-33.684;151.102;2023-04-03T06:49:57;23.50;99.90
39453;DHT22;25154;-33.684;151.102;2023-04-03T06:54:59;23.20;99.90
39453;DHT22;25154;-33.684;151.102;2023-04-03T07:00:04;22.70;99.90
39453;DHT22;25154;-33.684;151.102;2023-04-03T07:05:07;22.00;99.90
39453;DHT22;25154;-33.684;151.102;2023-04-03T07:10:10;21.70;99.90
39453;DHT22;25154;-33.684;151.102;2023-04-03T07:15:14;20.70;99.90
39453;DHT22;25154;-33.684;151.102;2023-04-03T07:20:20;20.40;99.90
39453;DHT22;25154;-33.684;151.102;2023-04-03T07:25:23;20.10;99.90
39453;DHT22;25154;-33.684;151.102;2023-04-03T07:30:25;20.80;99.90
39453;DHT22;25154;-33.684;151.102;2023-04-03T07:35:28;19.50;99.90
39453;DHT22;25154;-33.684;151.102;2023-04-03T07:40:31;19.30;99.90
39453;DHT22;25154;-33.684;151.102;2023-04-03T07:45:35;19.10;99.90
39453;DHT22;25154;-33.684;151.102;2023-04-03T07:50:40;18.90;99.90
39453;DHT22;25154;-33.684;151.102;2023-04-03T07:55:46;18.70;99.90
39453;DHT22;25154;-33.684;151.102;2023-04-03T08:00:49;18.50;99.90
39453;DHT22;25154;-33.684;151.102;2023-04-03T08:05:52;18.30;99.90
39453;DHT22;25154;-33.684;151.102;2023-04-03T08:10:59;18.20;99.90
39453;DHT22;25154;-33.684;151.102;2023-04-03T08:16:14;18.00;99.90
39453;DHT22;25154;-33.684;151.102;2023-04-03T08:21:18;17.90;99.90
39453;DHT22;25154;-33.684;151.102;2023-04-03T08:26:22;17.80;99.90
39453;DHT22;25154;-33.684;151.102;2023-04-03T08:31:24;17.70;99.90
39453;DHT22;25154;-33.684;151.102;2023-04-03T08:36:31;17.50;99.90
39453;DHT22;25154;-33.684;151.102;2023-04-03T08:41:41;17.50;99.90
39453;DHT22;25154;-33.684;151.102;2023-04-03T08:52:23;17.40;99.90
39453;DHT22;25154;-33.684;151.102;2023-04-03T08:57:41;17.40;99.90
39453;DHT22;25154;-33.684;151.102;2023-04-03T09:02:54;17.40;99.90
39453;DHT22;25154;-33.684;151.102;2023-04-03T09:08:24;17.00;99.90
39453;DHT22;25154;-33.684;151.102;2023-04-03T09:13:41;17.40;99.90
39453;DHT22;25154;-33.684;151.102;2023-04-03T09:18:52;17.40;99.90
39453;DHT22;25154;-33.684;151.102;2023-04-03T09:23:59;17.20;99.90
39453;DHT22;25154;-33.684;151.102;2023-04-03T09:29:06;17.20;99.90
39453;DHT22;25154;-33.684;151.102;2023-04-03T09:39:28;17.10;99.90
39453;DHT22;25154;-33.684;151.102;2023-04-03T09:44:37;17.00;99.90
39453;DHT22;25154;-33.684;151.102;2023-04-03T09:49:40;16.90;99.90
39453;DHT22;25154;-33.684;151.102;2023-04-03T09:54:43;16.80;99.90
39453;DHT22;25154;-33.684;151.102;2023-04-03T09:59:59;16.80;99.90
39453;DHT22;25154;-33.684;151.102;2023-04-03T10:05:04;16.70;99.90
39453;DHT22;25154;-33.684;151.102;2023-04-03T10:10:20;16.70;99.90
39453;DHT22;25154;-33.684;151.102;2023-04-03T10:15:27;16.90;99.90
39453;DHT22;25154;-33.684;151.102;2023-04-03T10:20:44;16.70;99.90
39453;DHT22;25154;-33.684;151.102;2023-04-03T10:26:13;16.60;99.90
39453;DHT22;25154;-33.684;151.102;2023-04-03T10:52:54;16.20;99.90
39453;DHT22;25154;-33.684;151.102;2023-04-03T10:58:00;16.10;99.90
39453;DHT22;25154;-33.684;151.102;2023-04-03T11:03:13;16.00;99.90
39453;DHT22;25154;-33.684;151.102;2023-04-03T11:08:41;15.90;99.90
39453;DHT22;25154;-33.684;151.102;2023-04-03T11:13:50;15.90;99.90
39453;DHT22;25154;-33.684;151.102;2023-04-03T11:19:26;15.80;99.90
39453;DHT22;25154;-33.684;151.102;2023-04-03T11:24:32;15.80;99.90
39453;DHT22;25154;-33.684;151.102;2023-04-03T11:29:40;15.70;99.90
39453;DHT22;25154;-33.684;151.102;2023-04-03T11:34:48;16.00;99.90
39453;DHT22;25154;-33.684;151.102;2023-04-03T11:40:06;15.60;99.90
39453;DHT22;25154;-33.684;151.102;2023-04-03T11:50:43;15.50;99.90
39453;DHT22;25154;-33.684;151.102;2023-04-03T12:01:09;15.40;99.90
39453;DHT22;25154;-33.684;151.102;2023-04-03T12:11:30;15.30;99.90
39453;DHT22;25154;-33.684;151.102;2023-04-03T12:27:21;15.10;99.90
39453;DHT22;25154;-33.684;151.102;2023-04-03T12:49:00;14.90;99.90
39453;DHT22;25154;-33.684;151.102;2023-04-03T12:54:12;14.90;99.90
39453;DHT22;25154;-33.684;151.102;2023-04-03T12:59:26;14.70;99.90
39453;DHT22;25154;-33.684;151.102;2023-04-03T13:04:32;14.60;99.90
39453;DHT22;25154;-33.684;151.102;2023-04-03T13:09:35;14.70;99.90
39453;DHT22;25154;-33.684;151.102;2023-04-03T13:14:39;14.60;99.90
39453;DHT22;25154;-33.684;151.102;2023-04-03T13:19:43;14.70;99.90
39453;DHT22;25154;-33.684;151.102;2023-04-03T13:24:53;14.60;99.90
39453;DHT22;25154;-33.684;151.102;2023-04-03T13:30:02;15.50;99.90
39453;DHT22;25154;-33.684;151.102;2023-04-03T13:35:36;14.50;99.90
39453;DHT22;25154;-33.684;151.102;2023-04-03T13:40:50;14.50;99.90
39453;DHT22;25154;-33.684;151.102;2023-04-03T13:46:22;14.40;99.90
39453;DHT22;25154;-33.684;151.102;2023-04-03T13:51:30;14.50;99.90
39453;DHT22;25154;-33.684;151.102;2023-04-03T13:56:38;14.60;99.90
39453;DHT22;25154;-33.684;151.102;2023-04-03T14:01:51;14.60;99.90
39453;DHT22;25154;-33.684;151.102;2023-04-03T14:06:55;12.80;99.90
39453;DHT22;25154;-33.684;151.102;2023-04-03T14:12:05;14.70;99.90
39453;DHT22;25154;-33.684;151.102;2023-04-03T14:17:16;14.70;99.90
39453;DHT22;25154;-33.684;151.102;2023-04-03T14:22:30;14.90;99.90
39453;DHT22;25154;-33.684;151.102;2023-04-03T14:27:42;15.00;99.90
39453;DHT22;25154;-33.684;151.102;2023-04-03T14:32:45;14.90;99.90
39453;DHT22;25154;-33.684;151.102;2023-04-03T14:37:48;14.90;99.90
39453;DHT22;25154;-33.684;151.102;2023-04-03T14:42:52;15.00;99.90
39453;DHT22;25154;-33.684;151.102;2023-04-03T14:47:57;15.10;99.90
39453;DHT22;25154;-33.684;151.102;2023-04-03T14:52:59;15.30;99.90
39453;DHT22;25154;-33.684;151.102;2023-04-03T14:58:08;15.30;99.90
39453;DHT22;25154;-33.684;151.102;2023-04-03T15:03:19;15.20;99.90
39453;DHT22;25154;-33.684;151.102;2023-04-03T15:08:24;15.20;99.90
39453;DHT22;25154;-33.684;151.102;2023-04-03T15:13:27;15.10;99.90
39453;DHT22;25154;-33.684;151.102;2023-04-03T15:18:35;15.00;99.90
39453;DHT22;25154;-33.684;151.102;2023-04-03T15:23:39;15.00;99.90
39453;DHT22;25154;-33.684;151.102;2023-04-03T15:28:46;14.90;99.90
39453;DHT22;25154;-33.684;151.102;2023-04-03T15:33:48;14.80;99.90
39453;DHT22;25154;-33.684;151.102;2023-04-03T15:38:51;14.70;99.90
39453;DHT22;25154;-33.684;151.102;2023-04-03T15:43:54;14.60;99.90
39453;DHT22;25154;-33.684;151.102;2023-04-03T15:48:57;14.50;99.90
39453;DHT22;25154;-33.684;151.102;2023-04-03T15:54:00;14.40;99.90
39453;DHT22;25154;-33.684;151.102;2023-04-03T15:59:04;14.40;99.90
39453;DHT22;25154;-33.684;151.102;2023-04-03T16:04:08;14.40;99.90
39453;DHT22;25154;-33.684;151.102;2023-04-03T16:09:12;14.30;99.90
39453;DHT22;25154;-33.684;151.102;2023-04-03T16:14:15;14.30;99.90
39453;DHT22;25154;-33.684;151.102;2023-04-03T16:19:18;14.10;99.90
39453;DHT22;25154;-33.684;151.102;2023-04-03T16:24:23;14.10;99.90
39453;DHT22;25154;-33.684;151.102;2023-04-03T16:29:26;14.10;99.90
39453;DHT22;25154;-33.684;151.102;2023-04-03T16:34:30;14.00;99.90
39453;DHT22;25154;-33.684;151.102;2023-04-03T16:39:34;13.90;99.90
39453;DHT22;25154;-33.684;151.102;2023-04-03T16:44:37;13.90;99.90
39453;DHT22;25154;-33.684;151.102;2023-04-03T16:49:41;13.80;99.90
39453;DHT22;25154;-33.684;151.102;2023-04-03T16:54:43;13.90;99.90
39453;DHT22;25154;-33.684;151.102;2023-04-03T16:59:45;13.90;99.90
39453;DHT22;25154;-33.684;151.102;2023-04-03T17:04:48;13.80;99.90
39453;DHT22;25154;-33.684;151.102;2023-04-03T17:09:51;13.90;99.90
39453;DHT22;25154;-33.684;151.102;2023-04-03T17:14:54;13.80;99.90
39453;DHT22;25154;-33.684;151.102;2023-04-03T17:19:57;13.80;99.90
39453;DHT22;25154;-33.684;151.102;2023-04-03T17:25:00;13.70;99.90
39453;DHT22;25154;-33.684;151.102;2023-04-03T17:30:03;13.80;99.90
39453;DHT22;25154;-33.684;151.102;2023-04-03T17:35:08;13.70;99.90
39453;DHT22;25154;-33.684;151.102;2023-04-03T17:40:11;13.80;99.90
39453;DHT22;25154;-33.684;151.102;2023-04-03T17:45:15;13.30;99.90
39453;DHT22;25154;-33.684;151.102;2023-04-03T17:50:19;13.50;99.90
39453;DHT22;25154;-33.684;151.102;2023-04-03T17:55:22;13.50;99.90
39453;DHT22;25154;-33.684;151.102;2023-04-03T18:00:25;13.50;99.90
39453;DHT22;25154;-33.684;151.102;2023-04-03T18:05:29;13.60;99.90
39453;DHT22;25154;-33.684;151.102;2023-04-03T18:10:34;13.50;99.90
39453;DHT22;25154;-33.684;151.102;2023-04-03T18:15:38;13.50;99.90
39453;DHT22;25154;-33.684;151.102;2023-04-03T18:20:46;13.50;99.90
39453;DHT22;25154;-33.684;151.102;2023-04-03T18:25:50;13.40;99.90
39453;DHT22;25154;-33.684;151.102;2023-04-03T18:30:54;13.40;99.90
39453;DHT22;25154;-33.684;151.102;2023-04-03T18:35:56;13.50;99.90
39453;DHT22;25154;-33.684;151.102;2023-04-03T18:41:00;13.50;99.90
39453;DHT22;25154;-33.684;151.102;2023-04-03T18:46:04;13.60;99.90
39453;DHT22;25154;-33.684;151.102;2023-04-03T18:51:09;13.50;99.90
39453;DHT22;25154;-33.684;151.102;2023-04-03T18:56:12;13.70;99.90
39453;DHT22;25154;-33.684;151.102;2023-04-03T19:01:15;13.80;99.90
39453;DHT22;25154;-33.684;151.102;2023-04-03T19:06:18;13.70;99.90
39453;DHT22;25154;-33.684;151.102;2023-04-03T19:11:20;13.70;99.90
39453;DHT22;25154;-33.684;151.102;2023-04-03T19:16:24;13.60;99.90
39453;DHT22;25154;-33.684;151.102;2023-04-03T19:21:27;13.60;99.90
39453;DHT22;25154;-33.684;151.102;2023-04-03T19:26:31;13.70;99.90
39453;DHT22;25154;-33.684;151.102;2023-04-03T19:31:33;13.60;99.90
39453;DHT22;25154;-33.684;151.102;2023-04-03T19:36:37;13.60;99.90
39453;DHT22;25154;-33.684;151.102;2023-04-03T19:41:40;13.50;99.90
39453;DHT22;25154;-33.684;151.102;2023-04-03T19:46:46;13.70;99.90
39453;DHT22;25154;-33.684;151.102;2023-04-03T19:51:50;13.60;99.90
39453;DHT22;25154;-33.684;151.102;2023-04-03T19:56:53;13.60;99.90
39453;DHT22;25154;-33.684;151.102;2023-04-03T20:01:56;13.60;99.90
39453;DHT22;25154;-33.684;151.102;2023-04-03T20:06:59;13.60;99.90
39453;DHT22;25154;-33.684;151.102;2023-04-03T20:12:02;13.50;99.90
39453;DHT22;25154;-33.684;151.102;2023-04-03T20:17:04;13.60;99.90
39453;DHT22;25154;-33.684;151.102;2023-04-03T20:22:09;13.60;99.90
39453;DHT22;25154;-33.684;151.102;2023-04-03T20:27:12;13.60;99.90
39453;DHT22;25154;-33.684;151.102;2023-04-03T20:32:16;13.60;99.90
39453;DHT22;25154;-33.684;151.102;2023-04-03T20:37:19;13.60;99.90
39453;DHT22;25154;-33.684;151.102;2023-04-03T20:42:25;13.70;99.90
39453;DHT22;25154;-33.684;151.102;2023-04-03T20:47:28;13.60;99.90
39453;DHT22;25154;-33.684;151.102;2023-04-03T20:52:31;13.60;99.90
39453;DHT22;25154;-33.684;151.102;2023-04-03T20:57:34;13.70;99.90
39453;DHT22;25154;-33.684;151.102;2023-04-03T21:02:37;13.80;99.90
39453;DHT22;25154;-33.684;151.102;2023-04-03T21:19:09;14.20;99.90
39453;DHT22;25154;-33.684;151.102;2023-04-03T21:24:16;14.30;99.90
39453;DHT22;25154;-33.684;151.102;2023-04-03T21:29:19;14.50;99.90
39453;DHT22;25154;-33.684;151.102;2023-04-03T21:34:21;15.90;99.90
39453;DHT22;25154;-33.684;151.102;2023-04-03T21:39:28;15.00;99.90
39453;DHT22;25154;-33.684;151.102;2023-04-03T21:44:30;15.30;99.90
39453;DHT22;25154;-33.684;151.102;2023-04-03T21:49:32;15.60;99.90
39453;DHT22;25154;-33.684;151.102;2023-04-03T21:54:35;15.70;99.90
39453;DHT22;25154;-33.684;151.102;2023-04-03T21:59:37;15.80;99.90
39453;DHT22;25154;-33.684;151.102;2023-04-03T22:04:40;15.80;99.90
39453;DHT22;25154;-33.684;151.102;2023-04-03T22:09:42;16.00;99.90
39453;DHT22;25154;-33.684;151.102;2023-04-03T22:14:44;15.90;99.90
39453;DHT22;25154;-33.684;151.102;2023-04-03T22:19:47;15.90;99.90
39453;DHT22;25154;-33.684;151.102;2023-04-03T22:24:50;15.80;99.90
39453;DHT22;25154;-33.684;151.102;2023-04-03T22:29:52;15.90;99.90
39453;DHT22;25154;-33.684;151.102;2023-04-03T22:34:55;16.80;99.90
39453;DHT22;25154;-33.684;151.102;2023-04-03T22:39:57;16.80;99.90
39453;DHT22;25154;-33.684;151.102;2023-04-03T22:44:59;16.80;99.90
39453;DHT22;25154;-33.684;151.102;2023-04-03T22:50:02;17.00;99.90
39453;DHT22;25154;-33.684;151.102;2023-04-03T22:55:05;17.10;99.90
39453;DHT22;25154;-33.684;151.102;2023-04-03T23:00:08;17.20;99.90
39453;DHT22;25154;-33.684;151.102;2023-04-03T23:05:11;17.60;99.90
39453;DHT22;25154;-33.684;151.102;2023-04-03T23:10:14;17.90;99.90
39453;DHT22;25154;-33.684;151.102;2023-04-03T23:15:19;18.30;99.90
39453;DHT22;25154;-33.684;151.102;2023-04-03T23:20:26;18.60;99.90
39453;DHT22;25154;-33.684;151.102;2023-04-03T23:25:29;19.20;99.90
39453;DHT22;25154;-33.684;151.102;2023-04-03T23:30:31;17.00;99.90
39453;DHT22;25154;-33.684;151.102;2023-04-03T23:35:34;19.50;99.90
39453;DHT22;25154;-33.684;151.102;2023-04-03T23:40:36;19.90;99.90
39453;DHT22;25154;-33.684;151.102;2023-04-03T23:45:39;20.10;99.90
39453;DHT22;25154;-33.684;151.102;2023-04-03T23:50:43;20.50;99.90
39453;DHT22;25154;-33.684;151.102;2023-04-03T23:55:45;17.10;99.90
